sensor_id;sensor_type;location;lat;lon;timestamp;P1;durP1;ratioP1;P2;durP2;ratioP2
43413;SDS011;29013;49.676;8.606;2023-04-10T00:02:21;1.74;;;1.48;;
43413;SDS011;29013;49.676;8.606;2023-04-10T00:07:47;2.34;;;1.78;;
43413;SDS011;29013;49.676;8.606;2023-04-10T00:13:12;2.44;;;1.53;;
43413;SDS011;29013;49.676;8.606;2023-04-10T00:18:36;2.7;;;1.58;;
43413;SDS011;29013;49.676;8.606;2023-04-10T00:23:58;4.17;;;1.86;;
43413;SDS011;29013;49.676;8.606;2023-04-10T00:29:21;2.14;;;1.61;;
43413;SDS011;29013;49.676;8.606;2023-04-10T00:34:45;2.27;;;1.28;;
43413;SDS011;29013;49.676;8.606;2023-04-10T00:40:12;1.88;;;1.27;;
43413;SDS011;29013;49.676;8.606;2023-04-10T00:45:37;2.96;;;1.16;;
43413;SDS011;29013;49.676;8.606;2023-04-10T00:51:03;2.2;;;1.8;;
43413;SDS011;29013;49.676;8.606;2023-04-10T00:56:27;1.92;;;1.46;;
43413;SDS011;29013;49.676;8.606;2023-04-10T01:01:52;2.99;;;1.37;;
43413;SDS011;29013;49.676;8.606;2023-04-10T01:07:20;0.71;;;0.74;;
43413;SDS011;29013;49.676;8.606;2023-04-10T01:12:50;1.73;;;1.61;;
43413;SDS011;29013;49.676;8.606;2023-04-10T01:18:18;2.76;;;1.22;;
43413;SDS011;29013;49.676;8.606;2023-04-10T01:23:51;1.48;;;1.32;;
43413;SDS011;29013;49.676;8.606;2023-04-10T01:29:17;1.87;;;1.39;;
43413;SDS011;29013;49.676;8.606;2023-04-10T01:35:01;1.85;;;1.23;;
43413;SDS011;29013;49.676;8.606;2023-04-10T01:40:26;2.36;;;1.72;;
43413;SDS011;29013;49.676;8.606;2023-04-10T01:46:07;3.08;;;1.66;;
43413;SDS011;29013;49.676;8.606;2023-04-10T01:51:51;1.58;;;1.14;;
43413;SDS011;29013;49.676;8.606;2023-04-10T01:57:14;3.83;;;1.47;;
43413;SDS011;29013;49.676;8.606;2023-04-10T02:02:40;0.8;;;0.66;;
43413;SDS011;29013;49.676;8.606;2023-04-10T02:08:32;1.76;;;1.4;;
43413;SDS011;29013;49.676;8.606;2023-04-10T02:13:55;3.43;;;1.44;;
43413;SDS011;29013;49.676;8.606;2023-04-10T02:19:22;0.91;;;1.04;;
43413;SDS011;29013;49.676;8.606;2023-04-10T02:24:46;1.33;;;1.22;;
43413;SDS011;29013;49.676;8.606;2023-04-10T02:30:10;1.93;;;1.23;;
43413;SDS011;29013;49.676;8.606;2023-04-10T02:35:34;2.04;;;1.14;;
43413;SDS011;29013;49.676;8.606;2023-04-10T02:41:01;0.86;;;0.71;;
43413;SDS011;29013;49.676;8.606;2023-04-10T02:46:27;0.93;;;0.63;;
43413;SDS011;29013;49.676;8.606;2023-04-10T02:51:52;1.86;;;1.59;;
43413;SDS011;29013;49.676;8.606;2023-04-10T02:57:39;1.61;;;1.29;;
43413;SDS011;29013;49.676;8.606;2023-04-10T03:03:00;1.22;;;0.83;;
43413;SDS011;29013;49.676;8.606;2023-04-10T03:08:25;1.72;;;1.5;;
43413;SDS011;29013;49.676;8.606;2023-04-10T03:13:51;0.75;;;0.85;;
43413;SDS011;29013;49.676;8.606;2023-04-10T03:19:16;2.03;;;1.27;;
43413;SDS011;29013;49.676;8.606;2023-04-10T03:24:35;1.73;;;0.97;;
43413;SDS011;29013;49.676;8.606;2023-04-10T03:29:59;1.04;;;1.12;;
43413;SDS011;29013;49.676;8.606;2023-04-10T03:35:25;0.91;;;0.74;;
43413;SDS011;29013;49.676;8.606;2023-04-10T03:40:50;1.48;;;0.88;;
43413;SDS011;29013;49.676;8.606;2023-04-10T03:46:42;1.48;;;1.22;;
43413;SDS011;29013;49.676;8.606;2023-04-10T03:52:06;2.68;;;1.53;;
43413;SDS011;29013;49.676;8.606;2023-04-10T03:57:32;1.54;;;1.16;;
43413;SDS011;29013;49.676;8.606;2023-04-10T04:02:57;2.47;;;1.23;;
43413;SDS011;29013;49.676;8.606;2023-04-10T04:08:22;1.16;;;1.01;;
43413;SDS011;29013;49.676;8.606;2023-04-10T04:13:46;1.75;;;1.46;;
43413;SDS011;29013;49.676;8.606;2023-04-10T04:19:11;1.03;;;0.74;;
43413;SDS011;29013;49.676;8.606;2023-04-10T04:24:37;2.09;;;1.5;;
43413;SDS011;29013;49.676;8.606;2023-04-10T04:30:01;1.61;;;1.21;;
43413;SDS011;29013;49.676;8.606;2023-04-10T04:35:23;1.18;;;0.97;;
43413;SDS011;29013;49.676;8.606;2023-04-10T04:41:07;1.89;;;1.03;;
43413;SDS011;29013;49.676;8.606;2023-04-10T04:46:32;3.62;;;1.42;;
43413;SDS011;29013;49.676;8.606;2023-04-10T04:51:59;1.13;;;1.1;;
43413;SDS011;29013;49.676;8.606;2023-04-10T04:57:22;1.93;;;1.45;;
43413;SDS011;29013;49.676;8.606;2023-04-10T05:02:48;1.09;;;1.09;;
43413;SDS011;29013;49.676;8.606;2023-04-10T05:08:13;1.91;;;1.04;;
43413;SDS011;29013;49.676;8.606;2023-04-10T05:13:39;1.24;;;1.2;;
43413;SDS011;29013;49.676;8.606;2023-04-10T05:19:26;2.98;;;1.41;;
43413;SDS011;29013;49.676;8.606;2023-04-10T05:24:47;3.39;;;1.62;;
43413;SDS011;29013;49.676;8.606;2023-04-10T05:30:14;1.01;;;0.85;;
43413;SDS011;29013;49.676;8.606;2023-04-10T05:35:39;1.14;;;1.06;;
43413;SDS011;29013;49.676;8.606;2023-04-10T05:41:04;1.6;;;1.02;;
43413;SDS011;29013;49.676;8.606;2023-04-10T05:46:30;1.68;;;1.17;;
43413;SDS011;29013;49.676;8.606;2023-04-10T05:51:52;1.45;;;1.64;;
43413;SDS011;29013;49.676;8.606;2023-04-10T05:57:17;1.11;;;1.25;;
43413;SDS011;29013;49.676;8.606;2023-04-10T06:02:44;1.6;;;1.02;;
43413;SDS011;29013;49.676;8.606;2023-04-10T06:08:09;1.42;;;0.97;;
43413;SDS011;29013;49.676;8.606;2023-04-10T06:13:34;1.05;;;1.13;;
43413;SDS011;29013;49.676;8.606;2023-04-10T06:18:56;2.11;;;1.53;;
43413;SDS011;29013;49.676;8.606;2023-04-10T06:24:37;3.4;;;1.25;;
43413;SDS011;29013;49.676;8.606;2023-04-10T06:30:03;0.97;;;0.8;;
43413;SDS011;29013;49.676;8.606;2023-04-10T06:35:31;1.45;;;0.87;;
43413;SDS011;29013;49.676;8.606;2023-04-10T06:40:57;0.81;;;0.88;;
43413;SDS011;29013;49.676;8.606;2023-04-10T06:46:25;1.28;;;0.84;;
43413;SDS011;29013;49.676;8.606;2023-04-10T06:51:51;0.86;;;0.95;;
43413;SDS011;29013;49.676;8.606;2023-04-10T06:57:14;1.11;;;0.94;;
43413;SDS011;29013;49.676;8.606;2023-04-10T07:02:40;1.15;;;0.8;;
43413;SDS011;29013;49.676;8.606;2023-04-10T07:08:07;1.71;;;1.41;;
43413;SDS011;29013;49.676;8.606;2023-04-10T07:13:34;1.12;;;1.1;;
43413;SDS011;29013;49.676;8.606;2023-04-10T07:19:00;1.34;;;0.84;;
43413;SDS011;29013;49.676;8.606;2023-04-10T07:24:22;1.34;;;0.95;;
43413;SDS011;29013;49.676;8.606;2023-04-10T07:29:45;1.07;;;0.82;;
43413;SDS011;29013;49.676;8.606;2023-04-10T07:35:35;2.39;;;1.42;;
43413;SDS011;29013;49.676;8.606;2023-04-10T07:41:00;1.15;;;0.92;;
43413;SDS011;29013;49.676;8.606;2023-04-10T07:46:25;0.95;;;0.62;;
43413;SDS011;29013;49.676;8.606;2023-04-10T07:51:51;0.96;;;0.84;;
43413;SDS011;29013;49.676;8.606;2023-04-10T07:57:16;1.09;;;0.98;;
43413;SDS011;29013;49.676;8.606;2023-04-10T08:02:42;1.37;;;0.86;;
43413;SDS011;29013;49.676;8.606;2023-04-10T08:08:06;1.64;;;1.52;;
43413;SDS011;29013;49.676;8.606;2023-04-10T08:13:33;1.74;;;1.06;;
43413;SDS011;29013;49.676;8.606;2023-04-10T08:18:59;1.61;;;1.09;;
43413;SDS011;29013;49.676;8.606;2023-04-10T08:24:41;1.21;;;0.96;;
43413;SDS011;29013;49.676;8.606;2023-04-10T08:30:07;0.58;;;0.47;;
43413;SDS011;29013;49.676;8.606;2023-04-10T08:35:28;1.32;;;0.98;;
43413;SDS011;29013;49.676;8.606;2023-04-10T08:40:54;1.25;;;0.74;;
43413;SDS011;29013;49.676;8.606;2023-04-10T08:46:35;1.12;;;0.93;;
43413;SDS011;29013;49.676;8.606;2023-04-10T08:51:55;0.69;;;0.75;;
43413;SDS011;29013;49.676;8.606;2023-04-10T08:57:22;1.13;;;0.71;;
43413;SDS011;29013;49.676;8.606;2023-04-10T09:02:46;0.96;;;0.88;;
43413;SDS011;29013;49.676;8.606;2023-04-10T09:08:10;1.23;;;1.1;;
43413;SDS011;29013;49.676;8.606;2023-04-10T09:13:37;1.53;;;0.91;;
43413;SDS011;29013;49.676;8.606;2023-04-10T09:19:01;1.47;;;0.92;;
43413;SDS011;29013;49.676;8.606;2023-04-10T09:24:28;0.78;;;0.57;;
43413;SDS011;29013;49.676;8.606;2023-04-10T09:29:54;2.06;;;1.29;;
43413;SDS011;29013;49.676;8.606;2023-04-10T09:35:18;1.13;;;0.94;;
43413;SDS011;29013;49.676;8.606;2023-04-10T09:40:45;0.55;;;0.51;;
43413;SDS011;29013;49.676;8.606;2023-04-10T09:46:09;0.65;;;0.57;;
43413;SDS011;29013;49.676;8.606;2023-04-10T09:51:35;1.07;;;0.7;;
43413;SDS011;29013;49.676;8.606;2023-04-10T09:57:00;0.82;;;0.58;;
43413;SDS011;29013;49.676;8.606;2023-04-10T10:02:27;1.2;;;0.62;;
43413;SDS011;29013;49.676;8.606;2023-04-10T10:07:52;1.01;;;0.89;;
43413;SDS011;29013;49.676;8.606;2023-04-10T10:13:17;0.88;;;0.67;;
43413;SDS011;29013;49.676;8.606;2023-04-10T10:18:38;0.73;;;0.71;;
43413;SDS011;29013;49.676;8.606;2023-04-10T10:24:02;0.99;;;0.81;;
43413;SDS011;29013;49.676;8.606;2023-04-10T10:29:28;1.31;;;0.95;;
43413;SDS011;29013;49.676;8.606;2023-04-10T10:34:54;0.48;;;0.53;;
43413;SDS011;29013;49.676;8.606;2023-04-10T10:40:22;1.38;;;0.81;;
43413;SDS011;29013;49.676;8.606;2023-04-10T10:45:48;0.6;;;0.56;;
43413;SDS011;29013;49.676;8.606;2023-04-10T10:51:14;0.72;;;0.56;;
43413;SDS011;29013;49.676;8.606;2023-04-10T10:56:40;0.99;;;0.71;;
43413;SDS011;29013;49.676;8.606;2023-04-10T11:02:31;1.24;;;0.69;;
43413;SDS011;29013;49.676;8.606;2023-04-10T11:13:32;3.59;;;0.66;;
43413;SDS011;29013;49.676;8.606;2023-04-10T11:19:05;1.23;;;0.62;;
43413;SDS011;29013;49.676;8.606;2023-04-10T11:30:29;0.69;;;0.57;;
43413;SDS011;29013;49.676;8.606;2023-04-10T11:35:50;0.62;;;0.67;;
43413;SDS011;29013;49.676;8.606;2023-04-10T11:41:16;1.24;;;0.85;;
43413;SDS011;29013;49.676;8.606;2023-04-10T11:46:38;1.15;;;0.56;;
43413;SDS011;29013;49.676;8.606;2023-04-10T11:52:50;0.91;;;0.85;;
43413;SDS011;29013;49.676;8.606;2023-04-10T11:58:24;0.75;;;0.73;;
43413;SDS011;29013;49.676;8.606;2023-04-10T12:03:44;0.51;;;0.56;;
43413;SDS011;29013;49.676;8.606;2023-04-10T12:09:13;0.99;;;0.84;;
43413;SDS011;29013;49.676;8.606;2023-04-10T12:14:57;1.63;;;1.04;;
43413;SDS011;29013;49.676;8.606;2023-04-10T12:20:20;1.47;;;0.91;;
43413;SDS011;29013;49.676;8.606;2023-04-10T12:25:45;1.14;;;0.83;;
43413;SDS011;29013;49.676;8.606;2023-04-10T12:31:09;1.25;;;0.9;;
43413;SDS011;29013;49.676;8.606;2023-04-10T12:36:34;1.19;;;0.81;;
43413;SDS011;29013;49.676;8.606;2023-04-10T12:47:29;1.91;;;0.75;;
43413;SDS011;29013;49.676;8.606;2023-04-10T12:53:21;1.52;;;0.94;;
43413;SDS011;29013;49.676;8.606;2023-04-10T12:58:44;0.93;;;0.58;;
43413;SDS011;29013;49.676;8.606;2023-04-10T13:04:10;1.45;;;0.63;;
43413;SDS011;29013;49.676;8.606;2023-04-10T13:09:36;0.96;;;0.64;;
43413;SDS011;29013;49.676;8.606;2023-04-10T13:15:27;2.17;;;0.69;;
43413;SDS011;29013;49.676;8.606;2023-04-10T13:20:52;0.51;;;0.47;;
43413;SDS011;29013;49.676;8.606;2023-04-10T13:26:17;1.06;;;0.74;;
43413;SDS011;29013;49.676;8.606;2023-04-10T13:31:43;0.99;;;0.56;;
43413;SDS011;29013;49.676;8.606;2023-04-10T13:37:10;0.63;;;0.59;;
43413;SDS011;29013;49.676;8.606;2023-04-10T13:42:33;0.61;;;0.61;;
43413;SDS011;29013;49.676;8.606;2023-04-10T13:47:57;1.46;;;0.76;;
43413;SDS011;29013;49.676;8.606;2023-04-10T13:53:22;0.74;;;0.65;;
43413;SDS011;29013;49.676;8.606;2023-04-10T13:58:47;1.15;;;0.67;;
43413;SDS011;29013;49.676;8.606;2023-04-10T14:04:13;2.38;;;0.8;;
43413;SDS011;29013;49.676;8.606;2023-04-10T14:09:39;0.71;;;0.56;;
43413;SDS011;29013;49.676;8.606;2023-04-10T14:15:07;0.82;;;0.39;;
43413;SDS011;29013;49.676;8.606;2023-04-10T14:20:32;0.68;;;0.65;;
43413;SDS011;29013;49.676;8.606;2023-04-10T14:25:58;0.47;;;0.44;;
43413;SDS011;29013;49.676;8.606;2023-04-10T14:31:46;1.43;;;0.7;;
43413;SDS011;29013;49.676;8.606;2023-04-10T14:37:11;2.47;;;0.64;;
43413;SDS011;29013;49.676;8.606;2023-04-10T14:42:37;0.25;;;0.26;;
43413;SDS011;29013;49.676;8.606;2023-04-10T14:48:03;0.63;;;0.43;;
43413;SDS011;29013;49.676;8.606;2023-04-10T14:53:29;0.52;;;0.42;;
43413;SDS011;29013;49.676;8.606;2023-04-10T14:58:56;0.32;;;0.33;;
43413;SDS011;29013;49.676;8.606;2023-04-10T15:04:22;0.87;;;0.41;;
43413;SDS011;29013;49.676;8.606;2023-04-10T15:09:49;0.81;;;0.46;;
43413;SDS011;29013;49.676;8.606;2023-04-10T15:15:14;0.39;;;0.32;;
43413;SDS011;29013;49.676;8.606;2023-04-10T15:20:41;0.71;;;0.34;;
43413;SDS011;29013;49.676;8.606;2023-04-10T15:26:10;0.91;;;0.52;;
43413;SDS011;29013;49.676;8.606;2023-04-10T15:31:36;1.55;;;0.72;;
43413;SDS011;29013;49.676;8.606;2023-04-10T15:36:59;0.55;;;0.39;;
43413;SDS011;29013;49.676;8.606;2023-04-10T15:42:24;0.65;;;0.39;;
